createdAt,value
2022-10-17T00:02:56.086Z,22.30
2022-10-17T00:05:46.287Z,15.30
2022-10-17T00:08:33.054Z,16.80
2022-10-17T00:11:22.606Z,14.90
2022-10-17T00:14:09.309Z,21.00
2022-10-17T00:16:56.267Z,15.20
2022-10-17T00:19:42.873Z,22.90
2022-10-17T00:22:29.644Z,14.70
2022-10-17T00:25:15.850Z,13.90
2022-10-17T00:28:02.709Z,14.80
2022-10-17T00:30:56.037Z,22.20
2022-10-17T00:33:44.304Z,14.80
2022-10-17T00:36:30.671Z,14.70
2022-10-17T00:39:17.487Z,15.40
2022-10-17T00:42:04.263Z,16.10
2022-10-17T00:44:51.189Z,13.70
2022-10-17T00:47:37.971Z,22.30
2022-10-17T00:50:26.205Z,22.60
2022-10-17T00:53:13.621Z,14.70
2022-10-17T00:56:00.264Z,23.20
2022-10-17T00:58:47.540Z,13.40
2022-10-17T01:02:32.685Z,12.40
2022-10-17T01:05:19.814Z,21.50
2022-10-17T01:08:07.621Z,21.60
2022-10-17T01:11:26.567Z,14.50
2022-10-17T01:15:07.403Z,13.20
2022-10-17T01:18:09.458Z,20.40
2022-10-17T01:21:18.198Z,15.70
2022-10-17T01:24:14.276Z,20.20
2022-10-17T01:27:22.180Z,15.20
2022-10-17T01:30:28.041Z,20.40
2022-10-17T01:33:24.309Z,18.90
2022-10-17T01:36:38.214Z,19.50
2022-10-17T01:39:52.236Z,19.60
2022-10-17T01:42:58.135Z,18.90
2022-10-17T01:45:57.356Z,13.70
2022-10-17T01:48:46.641Z,11.10
2022-10-17T01:51:42.290Z,16.80
2022-10-17T01:55:08.609Z,19.00
2022-10-17T01:58:05.711Z,12.20
2022-10-17T02:00:54.876Z,17.80
2022-10-17T02:03:44.755Z,18.90
2022-10-17T02:06:35.549Z,12.00
2022-10-17T02:09:25.538Z,13.60
2022-10-17T02:12:35.486Z,18.60
2022-10-17T02:15:55.857Z,13.60
2022-10-17T02:19:14.938Z,14.10
2022-10-17T02:22:24.938Z,12.80
2022-10-17T02:25:18.466Z,12.20
2022-10-17T02:28:38.709Z,12.50
2022-10-17T02:31:51.730Z,13.10
2022-10-17T02:34:50.095Z,12.70
2022-10-17T02:37:37.556Z,18.90
2022-10-17T02:40:24.874Z,14.20
2022-10-17T02:43:12.342Z,9.60
2022-10-17T02:45:59.388Z,12.00
2022-10-17T02:48:51.061Z,13.90
2022-10-17T02:52:08.028Z,14.30
2022-10-17T02:55:01.293Z,13.70
2022-10-17T02:57:53.047Z,12.70
2022-10-17T03:00:41.287Z,12.70
2022-10-17T03:03:31.189Z,13.30
2022-10-17T03:06:20.922Z,14.10
2022-10-17T03:09:08.618Z,15.60
2022-10-17T03:11:55.460Z,14.80
2022-10-17T03:14:42.477Z,13.80
2022-10-17T03:17:29.305Z,14.40
2022-10-17T03:20:15.912Z,15.00
2022-10-17T03:23:02.685Z,11.90
2022-10-17T03:25:49.600Z,12.60
2022-10-17T03:28:36.955Z,10.30
2022-10-17T03:31:23.429Z,8.30
2022-10-17T03:34:11.144Z,12.90
2022-10-17T03:36:57.820Z,12.80
2022-10-17T03:39:45.903Z,9.40
2022-10-17T03:42:32.787Z,12.20
2022-10-17T03:45:20.277Z,10.70
2022-10-17T03:48:07.333Z,17.90
2022-10-17T03:51:02.483Z,12.00
2022-10-17T03:53:51.997Z,14.80
2022-10-17T03:56:39.188Z,13.50
2022-10-17T03:59:29.590Z,13.30
2022-10-17T04:02:29.984Z,11.70
2022-10-17T04:05:17.880Z,11.30
2022-10-17T04:08:04.968Z,13.10
2022-10-17T04:11:19.781Z,10.50
2022-10-17T04:14:07.237Z,10.10
2022-10-17T04:16:54.185Z,11.20
2022-10-17T04:19:41.412Z,14.00
2022-10-17T04:22:28.852Z,12.80
2022-10-17T04:25:17.061Z,12.90
2022-10-17T04:28:06.115Z,16.60
2022-10-17T04:31:01.336Z,18.90
2022-10-17T04:33:52.215Z,14.20
2022-10-17T04:36:39.205Z,20.00
2022-10-17T04:39:25.896Z,13.20
2022-10-17T04:42:13.025Z,15.10
2022-10-17T04:45:00.641Z,21.00
2022-10-17T04:47:47.730Z,23.30
2022-10-17T04:50:34.619Z,23.60
2022-10-17T04:53:39.989Z,22.40
2022-10-17T04:56:27.031Z,22.00
2022-10-17T04:59:14.221Z,23.00
2022-10-17T05:02:02.459Z,14.90
2022-10-17T05:04:50.491Z,20.40
2022-10-17T05:07:40.811Z,12.10
2022-10-17T05:10:41.616Z,22.00
2022-10-17T05:13:28.452Z,22.60
2022-10-17T05:16:15.679Z,19.40
2022-10-17T05:19:03.448Z,13.00
2022-10-17T05:21:56.345Z,11.80
2022-10-17T05:24:43.014Z,21.40
2022-10-17T05:27:30.281Z,16.20
2022-10-17T05:30:17.755Z,13.30
2022-10-17T05:33:04.694Z,17.20
2022-10-17T05:35:52.370Z,15.70
2022-10-17T05:38:40.065Z,16.30
2022-10-17T05:41:27.670Z,20.80
2022-10-17T05:44:15.124Z,16.10
2022-10-17T05:47:04.978Z,15.10
2022-10-17T05:49:52.706Z,15.80
2022-10-17T05:52:53.850Z,13.30
2022-10-17T05:55:41.877Z,15.90
2022-10-17T06:01:46.248Z,13.80
2022-10-17T06:04:33.050Z,14.90
2022-10-17T06:07:22.412Z,13.10
2022-10-17T06:10:10.152Z,14.80
2022-10-17T06:12:57.768Z,13.30
2022-10-17T06:15:46.319Z,16.10
2022-10-17T06:18:33.709Z,13.50
2022-10-17T06:21:25.828Z,13.50
2022-10-17T06:24:17.793Z,15.10
2022-10-17T06:27:09.390Z,15.30
2022-10-17T06:29:58.712Z,14.70
2022-10-17T06:32:48.565Z,16.20
2022-10-17T06:35:35.593Z,14.40
2022-10-17T06:38:23.002Z,15.20
2022-10-17T06:41:14.878Z,19.10
2022-10-17T06:44:01.308Z,12.80
2022-10-17T06:47:05.805Z,15.80
2022-10-17T06:49:52.502Z,16.70
2022-10-17T06:52:51.977Z,16.50
2022-10-17T06:56:04.049Z,17.50
2022-10-17T06:59:10.319Z,17.80
2022-10-17T07:02:01.041Z,18.20
2022-10-17T07:04:49.072Z,16.40
2022-10-17T07:07:38.857Z,16.60
2022-10-17T07:10:28.727Z,17.70
2022-10-17T07:13:15.293Z,19.50
2022-10-17T07:16:02.282Z,26.20
2022-10-17T07:18:52.803Z,26.50
2022-10-17T07:21:39.711Z,28.40
2022-10-17T07:24:28.593Z,21.10
2022-10-17T07:27:21.997Z,25.50
2022-10-17T07:30:09.744Z,23.00
2022-10-17T07:32:59.270Z,20.70
2022-10-17T07:35:45.779Z,21.20
2022-10-17T07:38:32.735Z,21.90
2022-10-17T07:41:21.819Z,21.40
2022-10-17T07:44:09.224Z,18.60
2022-10-17T07:47:02.619Z,19.30
2022-10-17T07:49:49.668Z,19.50
2022-10-17T07:52:36.785Z,18.30
2022-10-17T07:55:23.801Z,18.20
2022-10-17T07:58:10.885Z,16.50
2022-10-17T08:03:49.541Z,17.10
2022-10-17T08:06:37.065Z,15.80
2022-10-17T08:09:24.159Z,16.10
2022-10-17T08:12:11.098Z,16.10
2022-10-17T08:14:57.604Z,14.50
2022-10-17T08:17:44.226Z,14.70
2022-10-17T08:20:30.990Z,12.90
2022-10-17T08:23:17.628Z,12.90
2022-10-17T08:26:06.718Z,13.10
2022-10-17T08:28:53.707Z,13.80
2022-10-17T08:31:40.431Z,14.00
2022-10-17T08:34:27.260Z,12.90
2022-10-17T08:37:15.093Z,12.60
2022-10-17T08:40:01.999Z,12.10
2022-10-17T08:43:07.374Z,12.60
2022-10-17T08:46:03.192Z,12.30
2022-10-17T08:48:52.120Z,8.00
2022-10-17T08:51:48.035Z,14.00
2022-10-17T08:54:45.611Z,10.10
2022-10-17T08:57:33.698Z,11.80
2022-10-17T09:00:22.031Z,11.70
2022-10-17T09:03:47.582Z,11.50
2022-10-17T09:06:41.131Z,12.40
2022-10-17T09:09:56.984Z,10.90
2022-10-17T09:13:08.128Z,11.50
2022-10-17T09:16:15.046Z,11.90
2022-10-17T09:19:16.015Z,10.40
2022-10-17T09:22:13.733Z,10.50
2022-10-17T09:25:06.938Z,10.10
2022-10-17T09:28:06.649Z,10.00
2022-10-17T09:31:04.920Z,11.60
2022-10-17T09:33:55.218Z,9.60
2022-10-17T09:36:44.058Z,9.70
2022-10-17T09:39:33.622Z,11.20
2022-10-17T09:42:25.097Z,9.20
2022-10-17T09:48:32.000Z,9.70
2022-10-17T09:51:25.634Z,8.10
2022-10-17T09:54:44.339Z,8.90
2022-10-17T09:58:01.513Z,11.00
2022-10-17T10:00:49.931Z,8.80
2022-10-17T10:03:36.549Z,9.90
2022-10-17T10:06:23.096Z,9.00
2022-10-17T10:09:22.528Z,8.90
2022-10-17T10:12:18.782Z,8.60
2022-10-17T10:15:33.978Z,7.30
2022-10-17T10:18:26.710Z,7.50
2022-10-17T10:21:22.575Z,7.40
2022-10-17T10:24:08.981Z,8.40
2022-10-17T10:26:58.738Z,8.60
2022-10-17T10:29:50.921Z,6.80
2022-10-17T10:32:37.997Z,6.00
2022-10-17T10:35:35.703Z,6.80
2022-10-17T10:38:22.940Z,5.90
2022-10-17T10:41:11.341Z,6.60
2022-10-17T10:43:57.899Z,6.80
2022-10-17T10:46:44.588Z,6.00
2022-10-17T10:49:32.221Z,6.10
2022-10-17T10:52:34.906Z,6.40
2022-10-17T10:55:34.749Z,7.10
2022-10-17T10:58:43.029Z,8.30
2022-10-17T11:01:46.411Z,6.90
2022-10-17T11:04:41.299Z,6.80
2022-10-17T11:07:34.190Z,6.80
2022-10-17T11:10:39.145Z,5.70
2022-10-17T11:13:31.721Z,7.10
2022-10-17T11:16:29.429Z,6.40
2022-10-17T11:19:28.654Z,6.20
2022-10-17T11:22:19.154Z,6.10
2022-10-17T11:25:19.816Z,5.80
2022-10-17T11:28:19.688Z,6.10
2022-10-17T11:31:10.428Z,6.20
2022-10-17T11:34:00.437Z,7.30
2022-10-17T11:36:52.113Z,7.10
2022-10-17T11:39:42.432Z,6.40
2022-10-17T11:42:39.650Z,6.40
2022-10-17T11:45:31.285Z,6.80
2022-10-17T11:48:24.146Z,7.30
2022-10-17T11:54:26.645Z,6.30
2022-10-17T11:57:19.496Z,6.60
2022-10-17T12:00:24.291Z,6.70
2022-10-17T12:03:20.020Z,7.20
2022-10-17T12:06:35.440Z,7.00
2022-10-17T12:09:41.210Z,6.00
2022-10-17T12:12:31.353Z,6.10
2022-10-17T12:15:20.612Z,6.80
2022-10-17T12:18:17.403Z,6.70
2022-10-17T12:21:04.161Z,8.10
2022-10-17T12:23:53.952Z,7.20
2022-10-17T12:26:40.866Z,7.60
2022-10-17T12:29:29.856Z,7.10
2022-10-17T12:32:16.897Z,7.70
2022-10-17T12:35:04.135Z,7.40
2022-10-17T12:38:17.886Z,7.10
2022-10-17T12:41:05.999Z,7.50
2022-10-17T12:43:54.541Z,7.00
2022-10-17T12:46:57.326Z,6.70
2022-10-17T12:49:46.442Z,7.50
2022-10-17T12:52:40.025Z,6.30
2022-10-17T12:55:27.023Z,6.60
2022-10-17T12:58:16.806Z,7.10
2022-10-17T13:01:23.188Z,6.40
2022-10-17T13:04:15.862Z,6.90
2022-10-17T13:07:07.657Z,6.50
2022-10-17T13:09:57.480Z,6.20
2022-10-17T13:12:44.628Z,7.50
2022-10-17T13:15:32.255Z,6.50
2022-10-17T13:18:26.109Z,6.00
2022-10-17T13:21:16.803Z,6.70
2022-10-17T13:24:39.194Z,7.20
2022-10-17T13:27:31.589Z,6.90
2022-10-17T13:30:34.537Z,6.90
2022-10-17T13:33:40.549Z,7.00
2022-10-17T13:36:29.482Z,5.70
2022-10-17T13:39:32.578Z,6.20
2022-10-17T13:42:30.299Z,6.00
2022-10-17T13:45:32.665Z,6.30
2022-10-17T13:48:28.790Z,7.20
2022-10-17T13:51:18.765Z,5.70
2022-10-17T13:54:38.249Z,6.10
2022-10-17T13:57:31.561Z,5.90
2022-10-17T14:00:21.966Z,6.10
2022-10-17T14:03:09.613Z,7.00
2022-10-17T14:06:22.320Z,5.20
2022-10-17T14:09:21.771Z,6.10
2022-10-17T14:12:13.662Z,5.50
2022-10-17T14:15:11.895Z,5.90
2022-10-17T14:18:08.381Z,5.80
2022-10-17T14:24:15.322Z,7.00
2022-10-17T14:27:04.374Z,5.90
2022-10-17T14:30:51.786Z,6.90
2022-10-17T14:33:51.052Z,6.10
2022-10-17T14:36:40.729Z,5.80
2022-10-17T14:39:30.079Z,5.40
2022-10-17T14:42:21.973Z,5.70
2022-10-17T14:45:13.929Z,5.80
2022-10-17T14:48:23.167Z,5.70
2022-10-17T14:51:16.683Z,6.50
2022-10-17T14:54:23.806Z,6.00
2022-10-17T14:57:33.550Z,5.90
2022-10-17T15:00:22.821Z,6.20
2022-10-17T15:03:14.233Z,6.50
2022-10-17T15:06:20.068Z,6.90
2022-10-17T15:09:07.526Z,6.00
2022-10-17T15:11:54.343Z,6.30
2022-10-17T15:14:41.695Z,6.40
2022-10-17T15:17:31.482Z,5.30
2022-10-17T15:20:18.394Z,6.20
2022-10-17T15:23:05.329Z,6.10
2022-10-17T15:25:53.946Z,6.50
2022-10-17T15:28:40.778Z,6.60
2022-10-17T15:31:29.949Z,6.90
2022-10-17T15:34:16.573Z,6.10
2022-10-17T15:37:05.163Z,7.20
2022-10-17T15:39:54.713Z,6.90
2022-10-17T15:42:42.567Z,5.90
2022-10-17T15:45:29.112Z,6.60
2022-10-17T15:48:20.901Z,6.70
2022-10-17T15:51:08.161Z,7.80
2022-10-17T15:53:55.503Z,7.50
2022-10-17T15:56:47.804Z,7.10
2022-10-17T15:59:36.463Z,7.50
2022-10-17T16:02:24.477Z,7.10
2022-10-17T16:05:18.564Z,7.50
2022-10-17T16:08:05.203Z,10.50
2022-10-17T16:10:53.007Z,13.60
2022-10-17T16:13:42.600Z,13.10
2022-10-17T16:16:29.891Z,10.20
2022-10-17T16:19:17.111Z,9.80
2022-10-17T16:22:06.420Z,9.00
2022-10-17T16:24:59.627Z,10.00
2022-10-17T16:27:50.441Z,8.40
2022-10-17T16:30:46.273Z,8.20
2022-10-17T16:33:35.738Z,8.30
2022-10-17T16:36:24.090Z,7.90
2022-10-17T16:39:12.131Z,8.40
2022-10-17T16:41:59.754Z,9.20
2022-10-17T16:44:47.379Z,9.70
2022-10-17T16:47:34.380Z,10.40
2022-10-17T16:50:21.824Z,10.20
2022-10-17T16:53:08.821Z,10.50
2022-10-17T16:56:03.927Z,10.30
2022-10-17T16:58:51.763Z,11.80
2022-10-17T17:01:44.489Z,11.20
2022-10-17T17:04:31.951Z,12.10
2022-10-17T17:07:20.081Z,11.40
2022-10-17T17:10:07.303Z,11.40
2022-10-17T17:12:56.626Z,12.80
2022-10-17T17:18:36.338Z,12.50
2022-10-17T17:21:23.808Z,16.50
2022-10-17T17:24:13.967Z,16.90
2022-10-17T17:27:00.937Z,19.50
2022-10-17T17:29:48.313Z,19.40
2022-10-17T17:32:34.891Z,22.20
2022-10-17T17:35:22.231Z,25.00
2022-10-17T17:38:09.249Z,28.50
2022-10-17T17:40:56.353Z,27.00
2022-10-17T17:43:45.181Z,20.00
2022-10-17T17:46:33.207Z,19.70
2022-10-17T17:49:19.908Z,18.00
2022-10-17T17:52:07.175Z,21.80
2022-10-17T17:54:54.258Z,18.30
2022-10-17T17:57:41.332Z,15.80
2022-10-17T18:00:28.383Z,12.70
2022-10-17T18:03:15.449Z,13.80
2022-10-17T18:06:05.482Z,13.70
2022-10-17T18:08:55.496Z,12.80
2022-10-17T18:11:42.513Z,12.60
2022-10-17T18:14:29.843Z,12.60
2022-10-17T18:17:16.532Z,11.80
2022-10-17T18:20:05.451Z,14.70
2022-10-17T18:22:52.692Z,13.50
2022-10-17T18:25:39.502Z,14.60
2022-10-17T18:28:27.615Z,13.40
2022-10-17T18:31:24.510Z,14.90
2022-10-17T18:34:11.302Z,11.70
2022-10-17T18:37:00.108Z,13.10
2022-10-17T18:39:51.517Z,13.80
2022-10-17T18:45:25.527Z,12.00
2022-10-17T18:48:12.272Z,13.60
2022-10-17T18:51:00.093Z,13.10
2022-10-17T18:53:49.830Z,12.40
2022-10-17T18:56:36.880Z,12.80
2022-10-17T18:59:24.135Z,10.90
2022-10-17T19:02:13.245Z,12.90
2022-10-17T19:05:00.931Z,10.90
2022-10-17T19:07:50.314Z,12.20
2022-10-17T19:10:37.935Z,12.10
2022-10-17T19:13:24.725Z,11.90
2022-10-17T19:16:33.693Z,11.10
2022-10-17T19:19:24.303Z,12.10
2022-10-17T19:22:12.730Z,10.00
2022-10-17T19:25:01.339Z,13.40
2022-10-17T19:27:47.968Z,16.40
2022-10-17T19:30:35.392Z,19.90
2022-10-17T19:33:22.558Z,17.70
2022-10-17T19:36:12.986Z,16.00
2022-10-17T19:39:01.784Z,18.20
2022-10-17T19:41:49.459Z,14.20
2022-10-17T19:44:36.704Z,13.20
2022-10-17T19:47:24.276Z,14.10
2022-10-17T19:50:11.406Z,13.30
2022-10-17T19:52:58.074Z,13.80
2022-10-17T19:55:45.813Z,13.10
2022-10-17T19:58:34.230Z,12.80
2022-10-17T20:01:30.530Z,13.80
2022-10-17T20:04:17.520Z,13.30
2022-10-17T20:07:04.600Z,12.80
2022-10-17T20:09:51.481Z,13.10
2022-10-17T20:12:38.395Z,13.10
2022-10-17T20:15:25.300Z,16.40
2022-10-17T20:18:12.231Z,16.60
2022-10-17T20:21:09.779Z,22.60
2022-10-17T20:23:56.391Z,17.00
2022-10-17T20:26:44.575Z,19.60
2022-10-17T20:29:31.633Z,20.10
2022-10-17T20:32:18.485Z,21.10
2022-10-17T20:35:07.524Z,17.70
2022-10-17T20:37:54.778Z,15.90
2022-10-17T20:40:41.674Z,15.50
2022-10-17T20:43:28.291Z,16.20
2022-10-17T20:46:29.414Z,18.10
2022-10-17T20:49:22.633Z,16.80
2022-10-17T20:52:09.653Z,10.50
2022-10-17T20:54:56.572Z,18.70
2022-10-17T20:57:43.352Z,17.80
2022-10-17T21:00:30.244Z,16.90
2022-10-17T21:03:17.132Z,16.50
2022-10-17T21:06:04.816Z,9.50
2022-10-17T21:08:54.261Z,13.30
2022-10-17T21:11:41.446Z,10.90
2022-10-17T21:14:28.319Z,16.20
2022-10-17T21:17:15.097Z,12.00
2022-10-17T21:20:02.038Z,15.30
2022-10-17T21:22:48.758Z,14.40
2022-10-17T21:25:35.548Z,14.80
2022-10-17T21:28:22.502Z,14.40
2022-10-17T21:31:10.479Z,14.10
2022-10-17T21:34:00.916Z,9.50
2022-10-17T21:36:48.489Z,8.90
2022-10-17T21:39:35.573Z,13.00
2022-10-17T21:42:22.616Z,14.00
2022-10-17T21:45:15.794Z,13.70
2022-10-17T21:48:13.974Z,13.00
2022-10-17T21:51:04.814Z,11.80
2022-10-17T21:53:55.420Z,13.20
2022-10-17T21:56:43.053Z,13.80
2022-10-17T21:59:31.652Z,13.20
2022-10-17T22:02:18.230Z,13.80
2022-10-17T22:05:05.196Z,12.30
2022-10-17T22:07:52.167Z,12.50
2022-10-17T22:10:40.038Z,7.20
2022-10-17T22:13:26.832Z,9.70
2022-10-17T22:16:16.102Z,10.30
2022-10-17T22:19:06.628Z,14.10
2022-10-17T22:21:54.218Z,13.20
2022-10-17T22:24:41.270Z,12.50
2022-10-17T22:27:28.262Z,8.50
2022-10-17T22:30:15.653Z,8.90
2022-10-17T22:33:02.737Z,8.00
2022-10-17T22:35:53.890Z,9.20
2022-10-17T22:38:45.992Z,13.00
2022-10-17T22:41:33.440Z,14.10
2022-10-17T22:44:20.517Z,12.50
2022-10-17T22:47:07.177Z,14.40
2022-10-17T22:49:54.079Z,16.70
2022-10-17T22:52:40.922Z,10.70
2022-10-17T22:55:27.791Z,16.90
2022-10-17T22:58:14.487Z,17.00
2022-10-17T23:01:02.248Z,15.70
2022-10-17T23:03:53.005Z,15.00
2022-10-17T23:06:39.697Z,10.70
2022-10-17T23:12:14.885Z,13.90
2022-10-17T23:15:02.117Z,10.20
2022-10-17T23:17:48.796Z,12.50
2022-10-17T23:20:36.258Z,13.70
2022-10-17T23:23:23.337Z,14.40
2022-10-17T23:26:13.715Z,10.60
2022-10-17T23:29:00.458Z,15.40
2022-10-17T23:31:47.129Z,14.10
2022-10-17T23:34:34.171Z,10.00
2022-10-17T23:37:20.910Z,14.10
2022-10-17T23:40:09.165Z,11.50
2022-10-17T23:42:55.893Z,10.40
2022-10-17T23:45:42.905Z,17.90
2022-10-17T23:48:30.539Z,18.00
2022-10-17T23:51:17.761Z,16.90
2022-10-17T23:54:05.049Z,20.20
2022-10-17T23:56:52.107Z,11.90
2022-10-17T23:59:38.814Z,14.90
